Terminal Aerodrome Forecast
Issued by NWS North Platte, NE

Home | Current Version | Previous Version | Text Only | Print | Product List | Glossary Off
Versions: 1 2 3 4 5 6 7 8 9 10 11 12 13 14 15 16 17

830
FTUS43 KLBF 302132 AAA
TAFVTN
TAF AMD
KVTN 302132Z 3022/3118 23013KT P6SM VCTS BKN100CB
      TEMPO 3022/3102 VRB20G40KT 3SM +TSRAGR BKN035CB
     FM310500 34006KT P6SM BKN100
     FM311300 29010KT P6SM BKN070=

USA.gov is the U.S. government's official web portal to all federal, state and local government web resources and services.